Harrison, New Jersey
Current Conditions -  °F | °C
As of 6:51 PM on Sunday 23 Nov 2014 (Local Time) from KEWR Reporting Station
Broken Clouds Broken Clouds  
Wind Chill: 51°   Ceiling: 25000
Heat Index: 51°   Visibility: 10mi
Dew Point: 30°   Wind: 0mph
Humidity: 45%   Direction: NA
Pressure: 30.12"   Gusts: NA
Location:  40.75°N, 74.16°W
Report Text: KEWR 232351Z 00000KT 10SM SCT150 BKN250 11/M01 A3012 RMK AO2 SLP200 10134 20105 T01051011 56003
Loading
Personal Weather Stations






























Interactive Weather Map New forecast layout! Learn more

10-Day Weather Forecast

Advertisements
Track Severe Weather on mobile